Time;durP1;ratioP1;P1;durP2;ratioP2;P2;SDS_P1;SDS_P2;PMS_P1;PMS_P2;Temp;Humidity;BMP_temperature;BMP_pressure;BME280_temperature;BME280_humidity;BME280_pressure;Samples;Min_cycle;Max_cycle;Signal;HPM_P1;HPM_P2
2022/01/04 00:01:23;;;;;;;12.97;5.10;;;7.40;99.90;;;;;;5115544;28;20226;-81
2022/01/04 00:03:49;;;;;;;12.80;5.10;;;7.50;99.90;;;;;;5115876;28;20629;-81
2022/01/04 00:06:15;;;;;;;8.07;4.03;;;7.40;99.90;;;;;;5097552;28;20192;-81
2022/01/04 00:08:40;;;;;;;18.57;6.23;;;7.30;99.90;;;;;;5115701;28;20183;-80
2022/01/04 00:11:30;;;;;;;14.60;4.80;;;7.30;99.90;;;;;;5097410;28;20174;-82
2022/01/04 00:13:56;;;;;;;10.80;4.83;;;7.40;99.90;;;;;;5115671;28;20168;-82
2022/01/04 00:16:21;;;;;;;12.57;4.17;;;7.50;99.90;;;;;;5115183;28;20466;-82
2022/01/04 00:18:47;;;;;;;11.73;4.30;;;7.50;99.90;;;;;;5115752;28;20766;-82
2022/01/04 00:21:12;;;;;;;13.40;6.03;;;7.50;99.90;;;;;;5115444;28;20174;-81
2022/01/04 00:23:38;;;;;;;11.93;3.63;;;7.40;99.90;;;;;;5097027;28;20789;-82
2022/01/04 00:26:04;;;;;;;8.73;4.00;;;7.40;99.90;;;;;;5115464;28;20173;-82
2022/01/04 00:28:30;;;;;;;12.80;4.50;;;7.30;99.90;;;;;;5115326;28;20498;-83
2022/01/04 00:30:56;;;;;;;8.67;4.40;;;7.30;99.90;;;;;;5114961;28;20173;-82
2022/01/04 00:33:22;;;;;;;12.20;4.73;;;7.40;99.90;;;;;;5114703;28;20165;-82
2022/01/04 00:35:47;;;;;;;10.60;4.57;;;7.40;99.90;;;;;;5115005;28;20462;-82
2022/01/04 00:38:13;;;;;;;8.50;4.23;;;7.40;99.90;;;;;;5114995;28;20550;-83
2022/01/04 00:40:39;;;;;;;10.60;4.10;;;7.50;99.90;;;;;;5115051;28;20177;-81
2022/01/04 00:43:05;;;;;;;11.60;5.00;;;7.40;99.90;;;;;;5096781;28;20425;-81
2022/01/04 00:45:33;;;;;;;9.90;3.30;;;7.40;99.90;;;;;;5114657;28;20205;-81
2022/01/04 00:50:29;;;;;;;11.53;3.83;;;7.50;99.90;;;;;;5114861;28;20443;-81
2022/01/04 00:52:55;;;;;;;10.43;3.40;;;7.40;99.90;;;;;;5114862;28;20459;-81
2022/01/04 00:55:21;;;;;;;15.10;5.37;;;7.40;99.90;;;;;;5114797;28;20459;-81
2022/01/04 00:57:47;;;;;;;7.97;3.63;;;7.50;99.90;;;;;;5114506;28;20455;-82
2022/01/04 01:00:14;;;;;;;7.33;4.90;;;7.40;99.90;;;;;;5114373;28;20469;-82
2022/01/04 01:02:40;;;;;;;9.87;4.37;;;7.40;99.90;;;;;;5114677;28;20173;-81
2022/01/04 01:05:07;;;;;;;6.97;4.87;;;7.30;99.90;;;;;;5096586;28;20478;-81
2022/01/04 01:07:33;;;;;;;13.93;5.37;;;7.30;99.90;;;;;;5114515;28;20176;-81
2022/01/04 01:12:25;;;;;;;11.90;5.10;;;7.40;99.90;;;;;;5114376;28;20969;-82
2022/01/04 01:14:50;;;;;;;13.13;4.83;;;7.40;99.90;;;;;;5114346;28;20463;-82
2022/01/04 01:17:16;;;;;;;10.17;5.63;;;7.40;99.90;;;;;;5095725;28;20209;-82
2022/01/04 01:19:41;;;;;;;16.43;5.40;;;7.40;99.90;;;;;;5114338;28;20615;-81
2022/01/04 01:22:07;;;;;;;10.67;5.73;;;7.40;99.90;;;;;;5114321;28;20179;-82
2022/01/04 01:24:32;;;;;;;13.13;4.77;;;7.40;99.90;;;;;;5114231;28;20169;-83
2022/01/04 01:26:58;;;;;;;10.57;5.27;;;7.40;99.90;;;;;;5114206;28;20178;-82
2022/01/04 01:29:23;;;;;;;10.33;5.97;;;7.40;99.90;;;;;;5113828;28;20184;-82
2022/01/04 01:31:49;;;;;;;11.27;4.33;;;7.50;99.90;;;;;;5113785;28;20588;-82
2022/01/04 01:34:14;;;;;;;11.80;4.73;;;7.50;99.90;;;;;;5114031;28;20180;-82
2022/01/04 01:36:40;;;;;;;7.60;4.10;;;7.50;99.90;;;;;;5095731;28;20253;-82
2022/01/04 01:39:05;;;;;;;8.30;4.77;;;7.50;99.90;;;;;;5113819;28;20218;-82
2022/01/04 01:41:31;;;;;;;10.23;5.13;;;7.50;99.90;;;;;;5113931;28;20554;-82
2022/01/04 01:43:56;;;;;;;7.40;4.97;;;7.50;99.90;;;;;;5113977;28;20165;-82
2022/01/04 01:46:22;;;;;;;12.07;4.73;;;7.50;99.90;;;;;;5112631;28;20172;-82
2022/01/04 01:48:47;;;;;;;6.50;3.97;;;7.50;99.90;;;;;;5113813;28;20169;-82
2022/01/04 01:51:16;;;;;;;11.90;4.17;;;7.50;99.90;;;;;;5113819;28;20217;-82
2022/01/04 01:53:42;;;;;;;10.70;5.10;;;7.60;99.90;;;;;;5113729;28;20188;-82
2022/01/04 01:56:08;;;;;;;6.43;4.10;;;7.50;99.90;;;;;;5113684;28;20489;-82
2022/01/04 01:58:33;;;;;;;13.20;5.90;;;7.60;99.90;;;;;;5095500;28;20932;-82
2022/01/04 02:00:59;;;;;;;8.87;4.50;;;7.60;99.90;;;;;;5095087;28;20170;-81
2022/01/04 02:03:24;;;;;;;10.87;4.67;;;7.60;99.90;;;;;;5095570;28;20189;-82
2022/01/04 02:05:51;;;;;;;9.03;4.70;;;7.60;99.90;;;;;;5113707;28;20169;-82
2022/01/04 02:08:18;;;;;;;13.07;7.03;;;7.60;99.90;;;;;;5113609;28;20320;-81
2022/01/04 02:10:44;;;;;;;11.03;5.80;;;7.60;99.90;;;;;;5113532;28;20814;-82
2022/01/04 02:13:10;;;;;;;10.70;4.53;;;7.60;99.90;;;;;;5113602;28;20453;-82
2022/01/04 02:15:35;;;;;;;13.10;6.13;;;7.60;99.90;;;;;;5113235;28;20959;-82
2022/01/04 02:18:02;;;;;;;12.33;5.80;;;7.60;99.90;;;;;;5113406;28;20176;-81
2022/01/04 02:20:27;;;;;;;15.50;6.43;;;7.60;99.90;;;;;;5113410;28;20178;-81
2022/01/04 02:22:54;;;;;;;10.37;5.90;;;7.60;99.90;;;;;;5113397;28;20415;-82
2022/01/04 02:25:20;;;;;;;13.20;5.57;;;7.60;99.90;;;;;;5095008;28;20181;-81
2022/01/04 02:27:46;;;;;;;12.13;5.00;;;7.60;99.90;;;;;;5112985;28;20418;-82
2022/01/04 02:30:15;;;;;;;13.73;6.10;;;7.60;99.90;;;;;;5112778;28;20407;-81
2022/01/04 02:32:42;;;;;;;10.57;5.40;;;7.70;99.90;;;;;;5113384;28;20259;-82
2022/01/04 02:35:08;;;;;;;12.03;5.83;;;7.60;99.90;;;;;;5113217;28;20426;-81
2022/01/04 02:37:33;;;;;;;15.40;5.67;;;7.60;99.90;;;;;;5113115;28;20499;-82
2022/01/04 02:39:59;;;;;;;17.33;7.77;;;7.60;99.90;;;;;;5093806;28;20508;-82
2022/01/04 02:42:24;;;;;;;13.77;5.80;;;7.60;99.90;;;;;;5112017;28;20552;-82
2022/01/04 02:44:50;;;;;;;13.73;7.97;;;7.60;99.90;;;;;;5111582;28;20221;-81
2022/01/04 02:47:17;;;;;;;16.43;7.70;;;7.60;99.90;;;;;;5112501;28;20180;-82
2022/01/04 02:49:43;;;;;;;15.07;7.13;;;7.60;99.90;;;;;;5113270;28;20452;-82
2022/01/04 02:52:08;;;;;;;17.00;9.00;;;7.60;99.90;;;;;;5113226;28;20840;-81
2022/01/04 02:54:35;;;;;;;12.20;6.40;;;7.60;99.90;;;;;;5113232;28;20451;-82
2022/01/04 02:57:00;;;;;;;13.40;6.77;;;7.50;99.90;;;;;;5114074;28;20208;-81
2022/01/04 02:59:26;;;;;;;15.57;7.30;;;7.50;99.90;;;;;;5117152;28;20464;-82
2022/01/04 03:01:52;;;;;;;15.43;6.83;;;7.60;99.90;;;;;;5116740;28;20252;-82
2022/01/04 03:04:18;;;;;;;15.33;8.03;;;7.60;99.90;;;;;;5116949;28;20243;-82
2022/01/04 03:06:43;;;;;;;13.37;6.93;;;7.50;99.90;;;;;;5116977;28;20181;-82
2022/01/04 03:09:09;;;;;;;18.87;7.10;;;7.50;99.90;;;;;;5116916;28;20168;-83
2022/01/04 03:11:35;;;;;;;10.17;6.23;;;7.50;99.90;;;;;;5116880;28;20233;-82
2022/01/04 03:14:01;;;;;;;11.87;6.57;;;7.40;99.90;;;;;;5116817;28;20412;-82
2022/01/04 03:16:27;;;;;;;12.17;7.10;;;7.30;99.90;;;;;;5116312;28;20204;-82
2022/01/04 03:19:09;;;;;;;12.57;6.50;;;7.20;99.90;;;;;;5116825;28;20638;-82
2022/01/04 03:21:37;;;;;;;16.33;8.20;;;7.20;99.90;;;;;;5116620;28;20919;-82
2022/01/04 03:24:05;;;;;;;13.70;7.83;;;7.20;99.90;;;;;;5116476;28;20415;-82
2022/01/04 03:26:31;;;;;;;26.83;8.33;;;7.20;99.90;;;;;;5116553;28;20415;-81
2022/01/04 03:28:57;;;;;;;14.97;8.53;;;7.20;99.90;;;;;;5116462;28;20407;-82
2022/01/04 03:31:23;;;;;;;17.00;7.30;;;7.10;99.90;;;;;;5116092;28;20923;-82
2022/01/04 03:33:48;;;;;;;14.40;7.47;;;7.10;99.90;;;;;;5116466;28;20201;-82
2022/01/04 03:36:14;;;;;;;11.63;7.73;;;7.10;99.90;;;;;;5116315;28;20532;-82
2022/01/04 03:38:41;;;;;;;13.80;8.70;;;7.10;99.90;;;;;;5116143;28;20209;-82
2022/01/04 03:41:08;;;;;;;12.83;7.80;;;7.10;99.90;;;;;;5116286;28;20421;-82
2022/01/04 03:43:34;;;;;;;13.80;8.67;;;7.10;99.90;;;;;;5097990;28;20455;-81
2022/01/04 03:45:59;;;;;;;12.93;6.97;;;7.10;99.90;;;;;;5115826;28;20444;-82
2022/01/04 03:48:25;;;;;;;13.93;8.47;;;7.20;99.90;;;;;;5116103;28;20403;-82
2022/01/04 03:50:50;;;;;;;18.53;8.83;;;7.30;99.90;;;;;;5116030;28;20194;-82
2022/01/04 03:53:16;;;;;;;16.90;6.57;;;7.30;99.90;;;;;;5116087;28;20184;-81
2022/01/04 03:55:41;;;;;;;14.40;8.40;;;7.30;99.90;;;;;;5115873;28;20581;-82
2022/01/04 03:58:07;;;;;;;14.50;8.00;;;7.30;99.90;;;;;;5115933;28;20176;-82
2022/01/04 04:00:32;;;;;;;13.13;7.40;;;7.30;99.90;;;;;;5115548;28;20192;-82
2022/01/04 04:02:58;;;;;;;19.33;7.27;;;7.20;99.90;;;;;;5115900;28;20193;-82
2022/01/04 04:05:23;;;;;;;18.37;7.90;;;7.10;99.90;;;;;;5115701;28;20201;-82
2022/01/04 04:07:48;;;;;;;16.20;8.40;;;7.00;99.90;;;;;;5115510;28;20165;-82
2022/01/04 04:10:14;;;;;;;16.53;7.80;;;7.00;99.90;;;;;;5096657;28;20778;-82
2022/01/04 04:12:40;;;;;;;10.47;7.13;;;7.10;99.90;;;;;;5097375;28;20164;-82
2022/01/04 04:15:08;;;;;;;15.27;8.97;;;7.10;99.90;;;;;;5115249;28;20555;-83
2022/01/04 04:17:35;;;;;;;17.07;7.90;;;7.10;99.90;;;;;;5115628;28;20164;-83
2022/01/04 04:20:03;;;;;;;14.97;8.90;;;7.10;99.90;;;;;;5115530;28;20429;-85
2022/01/04 04:22:28;;;;;;;15.53;9.20;;;7.00;99.90;;;;;;5115302;28;20911;-84
2022/01/04 04:24:54;;;;;;;13.73;8.43;;;7.10;99.90;;;;;;5115376;28;20410;-85
2022/01/04 04:27:19;;;;;;;20.97;9.20;;;7.20;99.90;;;;;;5115348;28;20528;-85
2022/01/04 04:29:45;;;;;;;17.87;8.60;;;7.30;99.90;;;;;;5114990;28;20177;-84
2022/01/04 04:32:10;;;;;;;21.73;11.47;;;7.30;99.90;;;;;;5115320;28;20197;-84
2022/01/04 04:34:36;;;;;;;12.57;7.13;;;7.40;99.90;;;;;;5115269;28;20173;-84
2022/01/04 04:37:03;;;;;;;20.00;9.20;;;7.40;99.90;;;;;;5114956;28;20255;-84
2022/01/04 04:39:28;;;;;;;16.70;9.00;;;7.40;99.90;;;;;;5115169;28;20180;-85
2022/01/04 04:41:54;;;;;;;15.27;7.73;;;7.40;99.90;;;;;;5114982;28;20412;-84
2022/01/04 04:44:19;;;;;;;18.90;9.67;;;7.40;99.90;;;;;;5115058;28;20177;-85
2022/01/04 04:46:46;;;;;;;15.80;8.90;;;7.40;99.90;;;;;;5114703;28;20202;-84
2022/01/04 04:49:11;;;;;;;20.23;8.37;;;7.50;99.90;;;;;;5114911;28;20256;-85
2022/01/04 04:51:37;;;;;;;12.07;7.50;;;7.50;99.90;;;;;;5096838;28;20819;-85
2022/01/04 04:54:04;;;;;;;14.20;8.30;;;7.40;99.90;;;;;;5114793;28;20525;-84
2022/01/04 04:56:29;;;;;;;17.53;9.87;;;7.40;99.90;;;;;;5114728;28;20509;-85
2022/01/04 04:58:55;;;;;;;18.23;10.50;;;7.40;99.90;;;;;;5114696;28;20823;-84
2022/01/04 05:01:21;;;;;;;17.30;8.93;;;7.50;99.90;;;;;;5114393;28;20170;-85
2022/01/04 05:03:46;;;;;;;15.10;8.80;;;7.50;99.90;;;;;;5114687;28;20164;-85
2022/01/04 05:06:12;;;;;;;21.00;11.17;;;7.60;99.90;;;;;;5096437;28;20639;-84
2022/01/04 05:08:37;;;;;;;15.87;8.90;;;7.60;99.90;;;;;;5114473;28;20173;-85
2022/01/04 05:11:03;;;;;;;24.83;11.33;;;7.60;99.90;;;;;;5114458;28;20632;-84
2022/01/04 05:13:29;;;;;;;23.83;10.53;;;7.60;99.90;;;;;;5114507;28;20174;-81
2022/01/04 05:15:55;;;;;;;20.13;10.33;;;7.60;99.90;;;;;;5113954;28;20641;-81
2022/01/04 05:18:20;;;;;;;21.10;9.80;;;7.60;99.90;;;;;;5114330;28;20494;-82
2022/01/04 05:20:46;;;;;;;21.40;10.40;;;7.60;99.90;;;;;;5114129;28;20241;-82
2022/01/04 05:23:11;;;;;;;15.53;9.20;;;7.60;99.90;;;;;;5114158;28;20190;-82
2022/01/04 05:25:37;;;;;;;23.37;9.60;;;7.60;99.90;;;;;;5114155;28;20679;-82
2022/01/04 05:28:03;;;;;;;14.90;10.37;;;7.60;99.90;;;;;;5114125;28;20178;-82
2022/01/04 05:30:28;;;;;;;21.93;9.20;;;7.60;99.90;;;;;;5113746;28;20173;-82
2022/01/04 05:32:54;;;;;;;16.87;9.47;;;7.60;99.90;;;;;;5114204;28;20617;-82
2022/01/04 05:35:19;;;;;;;14.33;9.80;;;7.60;99.90;;;;;;5114016;28;20170;-82
2022/01/04 05:37:45;;;;;;;22.40;10.30;;;7.60;99.90;;;;;;5113789;28;20225;-81
2022/01/04 05:40:11;;;;;;;18.50;9.67;;;7.60;99.90;;;;;;5113830;28;20249;-82
2022/01/04 05:42:36;;;;;;;16.33;10.70;;;7.50;99.90;;;;;;5113858;28;20265;-82
2022/01/04 05:45:03;;;;;;;18.97;9.90;;;7.50;99.90;;;;;;5113630;28;20497;-81
2022/01/04 05:47:28;;;;;;;18.03;10.03;;;7.50;99.90;;;;;;5113828;28;20213;-82
2022/01/04 05:49:53;;;;;;;19.80;9.90;;;7.50;99.90;;;;;;5113838;28;20442;-82
2022/01/04 05:52:19;;;;;;;21.30;10.10;;;7.50;99.90;;;;;;5113805;28;20263;-82
2022/01/04 05:54:46;;;;;;;22.93;10.47;;;7.50;99.90;;;;;;5095514;28;20235;-81
2022/01/04 05:57:11;;;;;;;19.50;10.10;;;7.50;99.90;;;;;;5113563;28;20567;-82
2022/01/04 05:59:37;;;;;;;19.83;9.83;;;7.50;99.90;;;;;;5113453;28;20403;-82
2022/01/04 06:02:03;;;;;;;19.20;9.23;;;7.50;99.90;;;;;;5113699;28;20200;-82
2022/01/04 06:04:28;;;;;;;19.23;11.63;;;7.50;99.90;;;;;;5113713;28;20593;-82
2022/01/04 06:06:54;;;;;;;25.67;10.53;;;7.50;99.90;;;;;;5113655;28;20259;-81
2022/01/04 06:09:27;;;;;;;16.23;9.90;;;7.50;99.90;;;;;;5113606;28;20167;-81
2022/01/04 06:17:08;;;;;;;10.97;8.70;;;7.50;99.90;;;;;;5113576;28;20224;-82
2022/01/04 06:19:34;;;;;;;18.03;11.90;;;7.50;99.90;;;;;;5113483;28;20402;-82
2022/01/04 06:21:59;;;;;;;19.00;10.90;;;7.50;99.90;;;;;;5113550;28;20415;-82
2022/01/04 06:24:25;;;;;;;25.73;11.20;;;7.40;99.90;;;;;;5113443;28;20193;-82
2022/01/04 06:26:52;;;;;;;18.13;10.90;;;7.40;99.90;;;;;;5113421;28;20501;-82
2022/01/04 06:29:20;;;;;;;19.07;11.97;;;7.40;99.90;;;;;;5113025;28;20198;-82
2022/01/04 06:31:45;;;;;;;22.17;12.33;;;7.40;99.90;;;;;;5114073;28;20497;-82
2022/01/04 06:34:11;;;;;;;22.70;12.07;;;7.50;99.90;;;;;;5117605;28;20432;-82
2022/01/04 06:36:36;;;;;;;14.13;9.87;;;7.50;99.90;;;;;;5117374;28;20213;-82
2022/01/04 06:39:03;;;;;;;19.23;11.77;;;7.50;99.90;;;;;;5117395;28;20218;-81
2022/01/04 06:41:28;;;;;;;18.70;10.93;;;7.50;99.90;;;;;;5117500;28;20517;-82
2022/01/04 06:43:54;;;;;;;24.30;12.73;;;7.50;99.90;;;;;;5117454;28;20421;-82
2022/01/04 06:46:19;;;;;;;16.87;10.57;;;7.50;99.90;;;;;;5116959;28;20172;-82
2022/01/04 06:48:45;;;;;;;28.27;13.10;;;7.50;99.90;;;;;;5117080;28;20170;-83
2022/01/04 06:51:10;;;;;;;21.70;10.90;;;7.50;99.90;;;;;;5117304;28;20239;-82
2022/01/04 06:53:36;;;;;;;25.90;11.13;;;7.60;99.90;;;;;;5117191;28;20184;-81
2022/01/04 06:56:02;;;;;;;18.47;10.37;;;7.60;99.90;;;;;;5117133;28;20270;-81
2022/01/04 06:58:27;;;;;;;20.30;12.00;;;7.50;99.90;;;;;;5117166;28;20907;-81
2022/01/04 07:00:53;;;;;;;23.17;11.37;;;7.50;99.90;;;;;;5116745;28;20249;-82
2022/01/04 07:03:18;;;;;;;21.93;11.10;;;7.50;99.90;;;;;;5117078;28;20170;-82
2022/01/04 07:05:44;;;;;;;20.57;9.97;;;7.50;99.90;;;;;;5116984;28;20205;-81
2022/01/04 07:08:09;;;;;;;19.63;11.60;;;7.40;99.90;;;;;;5116962;28;20255;-82
2022/01/04 07:10:35;;;;;;;20.00;10.33;;;7.50;99.90;;;;;;5116879;28;20165;-82
2022/01/04 07:13:00;;;;;;;23.77;11.60;;;7.50;99.90;;;;;;5098550;28;20185;-82
2022/01/04 07:15:26;;;;;;;20.27;13.10;;;7.40;99.90;;;;;;5116385;28;20177;-81
2022/01/04 07:17:51;;;;;;;24.60;12.00;;;7.40;99.90;;;;;;5116844;28;20655;-82
2022/01/04 07:20:17;;;;;;;16.70;9.87;;;7.40;99.90;;;;;;5098383;28;20202;-82
2022/01/04 07:22:42;;;;;;;16.10;10.40;;;7.40;99.90;;;;;;5116660;28;20278;-82
2022/01/04 07:25:08;;;;;;;15.13;9.27;;;7.40;99.90;;;;;;5116546;28;20170;-82
2022/01/04 07:27:34;;;;;;;15.87;9.70;;;7.30;99.90;;;;;;5116437;28;20177;-82
2022/01/04 07:30:00;;;;;;;16.53;10.80;;;7.30;99.90;;;;;;5097764;28;20710;-82
2022/01/04 07:32:25;;;;;;;23.07;11.83;;;7.30;99.90;;;;;;5116430;28;20180;-82
2022/01/04 07:34:51;;;;;;;20.90;11.37;;;7.30;99.90;;;;;;5116518;28;20186;-82
2022/01/04 07:37:16;;;;;;;15.80;10.87;;;7.30;99.90;;;;;;5116155;28;20320;-82
2022/01/04 07:39:42;;;;;;;18.10;10.93;;;7.40;99.90;;;;;;5116394;28;20249;-82
2022/01/04 07:42:08;;;;;;;18.83;10.10;;;7.30;99.90;;;;;;5116215;28;20698;-82
2022/01/04 07:44:34;;;;;;;23.00;11.60;;;7.40;99.90;;;;;;5115708;28;20520;-82
2022/01/04 07:46:59;;;;;;;18.50;11.00;;;7.30;99.90;;;;;;5116115;28;20177;-81
2022/01/04 07:49:25;;;;;;;23.50;12.37;;;7.40;99.90;;;;;;5116052;28;20484;-82
2022/01/04 07:51:52;;;;;;;21.70;10.83;;;7.40;99.90;;;;;;5116091;28;20175;-82
2022/01/04 07:54:17;;;;;;;23.97;10.37;;;7.40;99.90;;;;;;5116153;28;20510;-82
2022/01/04 07:56:43;;;;;;;19.07;10.80;;;7.50;99.90;;;;;;5116038;28;20563;-81
2022/01/04 07:59:08;;;;;;;24.97;13.57;;;7.50;99.90;;;;;;5097362;28;20178;-80
2022/01/04 08:01:34;;;;;;;18.20;10.80;;;7.50;99.90;;;;;;5115960;28;20307;-81
2022/01/04 08:04:04;;;;;;;17.17;11.57;;;7.50;99.90;;;;;;5115840;28;20185;-81
2022/01/04 08:06:31;;;;;;;18.27;12.13;;;7.50;99.90;;;;;;5115822;28;20253;-81
2022/01/04 08:08:57;;;;;;;19.97;11.67;;;7.50;99.90;;;;;;5115770;28;20411;-81
2022/01/04 08:11:22;;;;;;;22.73;12.40;;;7.50;99.90;;;;;;5115661;28;20511;-81
2022/01/04 08:13:48;;;;;;;17.63;10.10;;;7.60;99.90;;;;;;5115581;28;20167;-81
2022/01/04 08:16:15;;;;;;;18.90;12.37;;;7.60;99.90;;;;;;5115214;28;20284;-81
2022/01/04 08:18:44;;;;;;;21.10;12.43;;;7.60;99.90;;;;;;5115573;28;20185;-81
2022/01/04 08:21:10;;;;;;;21.00;11.43;;;7.60;99.90;;;;;;5115615;28;20506;-81
2022/01/04 08:23:35;;;;;;;21.93;12.53;;;7.60;99.90;;;;;;5115557;28;20471;-82
2022/01/04 08:26:01;;;;;;;22.77;12.67;;;7.60;99.90;;;;;;5115410;28;20170;-81
2022/01/04 08:28:26;;;;;;;19.30;11.87;;;7.60;99.90;;;;;;5115365;28;20985;-82
2022/01/04 08:30:52;;;;;;;22.83;12.70;;;7.60;99.90;;;;;;5114924;28;20173;-81
2022/01/04 08:33:18;;;;;;;22.40;12.60;;;7.60;99.90;;;;;;5115326;28;20221;-81
2022/01/04 08:35:44;;;;;;;15.30;10.00;;;7.60;99.90;;;;;;5115178;28;20296;-82
2022/01/04 08:38:09;;;;;;;20.57;12.13;;;7.60;99.90;;;;;;5115067;28;20589;-82
2022/01/04 08:40:36;;;;;;;20.37;12.27;;;7.60;99.90;;;;;;5115081;28;20180;-83
2022/01/04 08:43:02;;;;;;;23.67;13.40;;;7.60;99.90;;;;;;5115172;28;20173;-82
2022/01/04 08:45:28;;;;;;;19.53;11.53;;;7.60;99.90;;;;;;5114706;28;20504;-82
2022/01/04 08:47:54;;;;;;;20.23;13.10;;;7.60;99.90;;;;;;5115009;28;20472;-83
2022/01/04 08:50:20;;;;;;;20.37;12.97;;;7.60;99.90;;;;;;5109814;28;20173;-83
2022/01/04 08:52:46;;;;;;;23.13;14.13;;;7.60;99.90;;;;;;5114679;28;20633;-81
2022/01/04 08:55:12;;;;;;;25.27;13.03;;;7.60;99.90;;;;;;5092639;28;20427;-82
2022/01/04 08:57:38;;;;;;;19.33;12.30;;;7.60;99.90;;;;;;5076293;28;20423;-81
2022/01/04 09:00:08;;;;;;;20.77;12.70;;;7.60;99.90;;;;;;5093883;28;20424;-82
2022/01/04 09:02:34;;;;;;;21.27;13.07;;;7.60;99.90;;;;;;5094334;28;20983;-82
2022/01/04 09:05:00;;;;;;;21.97;12.80;;;7.70;99.90;;;;;;5094023;28;20831;-83
2022/01/04 09:07:26;;;;;;;20.70;11.93;;;7.70;99.90;;;;;;5094114;28;20420;-83
2022/01/04 09:09:52;;;;;;;25.53;13.70;;;7.70;99.90;;;;;;5075961;28;20174;-83
2022/01/04 09:12:20;;;;;;;20.97;14.23;;;7.70;99.90;;;;;;5094045;28;20427;-83
2022/01/04 09:14:59;;;;;;;18.70;13.70;;;7.70;99.90;;;;;;5093676;28;20420;-82
2022/01/04 09:20:11;;;;;;;17.20;11.60;;;7.80;99.90;;;;;;5094197;28;20412;-82
2022/01/04 09:22:37;;;;;;;19.73;12.77;;;7.80;99.90;;;;;;5093776;28;20817;-82
2022/01/04 09:25:03;;;;;;;22.57;12.70;;;7.80;99.90;;;;;;5093831;28;20411;-83
2022/01/04 09:27:29;;;;;;;17.70;11.97;;;7.80;99.90;;;;;;5075466;28;20550;-83
2022/01/04 09:29:55;;;;;;;18.43;10.57;;;7.80;99.90;;;;;;5093365;28;20421;-86
2022/01/04 09:32:21;;;;;;;19.97;12.13;;;7.90;99.90;;;;;;5075512;28;20171;-83
2022/01/04 09:34:47;;;;;;;19.13;12.67;;;7.90;99.90;;;;;;5093550;28;20527;-83
2022/01/04 09:37:13;;;;;;;26.27;12.20;;;8.00;99.90;;;;;;5093349;28;20844;-82
2022/01/04 09:39:39;;;;;;;18.00;10.57;;;8.00;99.90;;;;;;5093681;28;20175;-82
2022/01/04 09:42:07;;;;;;;18.80;11.83;;;8.00;99.90;;;;;;5093578;28;20428;-83
2022/01/04 09:44:33;;;;;;;17.47;11.77;;;8.10;99.90;;;;;;5093145;28;20167;-83
2022/01/04 09:47:02;;;;;;;14.97;12.37;;;8.10;99.90;;;;;;5093436;28;20928;-84
2022/01/04 09:49:28;;;;;;;20.73;12.80;;;8.10;99.90;;;;;;5093362;28;20172;-83
2022/01/04 09:51:55;;;;;;;17.73;11.33;;;8.10;99.90;;;;;;5093275;28;20415;-83
2022/01/04 09:54:23;;;;;;;21.40;12.70;;;8.10;99.90;;;;;;5093274;28;20474;-83
2022/01/04 09:56:50;;;;;;;17.50;11.70;;;8.10;99.90;;;;;;5093386;28;20472;-82
2022/01/04 09:59:16;;;;;;;19.70;11.73;;;8.10;99.90;;;;;;5092639;28;20428;-81
2022/01/04 10:01:45;;;;;;;21.13;12.47;;;8.10;99.90;;;;;;5109455;28;20943;-81
2022/01/04 10:04:11;;;;;;;19.70;12.97;;;8.10;99.90;;;;;;5094944;28;20788;-81
2022/01/04 10:06:41;;;;;;;30.70;11.53;;;8.10;99.90;;;;;;5112569;28;20447;-82
2022/01/04 10:09:11;;;;;;;19.30;9.70;;;8.10;99.90;;;;;;5113357;28;20423;-81
2022/01/04 10:11:42;;;;;;;19.80;12.47;;;8.20;99.90;;;;;;5094918;28;20966;-81
2022/01/04 10:14:29;;;;;;;18.03;11.23;;;8.10;99.90;;;;;;5112811;28;20405;-82
2022/01/04 10:17:04;;;;;;;16.27;12.10;;;8.10;99.90;;;;;;5113182;28;20487;-81
2022/01/04 10:19:33;;;;;;;22.90;12.17;;;8.10;99.90;;;;;;5113144;28;20415;-82
2022/01/04 10:22:19;;;;;;;18.53;11.20;;;8.10;99.90;;;;;;5113086;28;20428;-82
2022/01/04 10:24:48;;;;;;;19.93;12.37;;;8.10;99.90;;;;;;5113102;28;20411;-81
2022/01/04 10:27:30;;;;;;;20.40;11.63;;;8.10;99.90;;;;;;5113212;28;20416;-81
2022/01/04 10:30:27;;;;;;;17.40;11.63;;;8.10;99.90;;;;;;5112726;28;20472;-81
2022/01/04 10:33:11;;;;;;;18.87;10.83;;;8.10;99.90;;;;;;5111754;28;20451;-81
2022/01/04 10:35:38;;;;;;;18.03;11.73;;;8.20;99.90;;;;;;5094661;28;20560;-81
2022/01/04 10:38:20;;;;;;;17.67;11.20;;;8.10;99.90;;;;;;5094412;28;20995;-81
2022/01/04 10:40:47;;;;;;;18.60;12.87;;;8.20;99.90;;;;;;5094856;28;20452;-82
2022/01/04 10:43:16;;;;;;;17.20;10.30;;;8.20;99.90;;;;;;5112848;28;20437;-81
2022/01/04 10:45:42;;;;;;;21.37;11.13;;;8.20;99.90;;;;;;5112535;28;20422;-81
2022/01/04 10:48:29;;;;;;;16.40;10.00;;;8.20;99.90;;;;;;5112893;28;20420;-82
2022/01/04 10:50:59;;;;;;;14.53;9.90;;;8.10;99.90;;;;;;5113053;28;20416;-81
2022/01/04 10:53:34;;;;;;;19.50;10.90;;;8.20;99.90;;;;;;5112782;28;20469;-81
2022/01/04 10:56:03;;;;;;;21.40;12.07;;;8.20;99.90;;;;;;5112229;28;20469;-82
2022/01/04 10:58:32;;;;;;;16.37;10.53;;;8.20;99.90;;;;;;5111917;28;20488;-82
2022/01/04 11:01:01;;;;;;;18.00;12.53;;;8.20;99.90;;;;;;5112990;28;20407;-82
2022/01/04 11:03:30;;;;;;;17.70;10.77;;;8.20;99.90;;;;;;5112998;28;20485;-82
2022/01/04 11:05:59;;;;;;;17.53;8.70;;;8.30;99.90;;;;;;5112853;28;20426;-82
2022/01/04 11:08:25;;;;;;;16.10;10.10;;;8.30;99.90;;;;;;5112349;28;20460;-81
2022/01/04 11:10:53;;;;;;;17.93;10.23;;;8.30;99.90;;;;;;5111582;28;20416;-81
2022/01/04 11:13:19;;;;;;;16.20;11.23;;;8.40;99.90;;;;;;5112228;28;20419;-82
2022/01/04 11:15:44;;;;;;;20.03;10.97;;;8.40;99.90;;;;;;5111240;28;20469;-81
2022/01/04 11:18:11;;;;;;;16.03;10.20;;;8.40;99.90;;;;;;5114069;28;20424;-81
2022/01/04 11:20:40;;;;;;;18.97;10.10;;;8.30;99.90;;;;;;5116591;28;20186;-81
2022/01/04 11:23:06;;;;;;;16.33;10.10;;;8.20;99.90;;;;;;5116745;28;20431;-81
2022/01/04 11:25:32;;;;;;;20.60;10.50;;;8.30;99.90;;;;;;5116569;28;20412;-81
2022/01/04 11:28:01;;;;;;;16.23;9.43;;;8.30;99.90;;;;;;5116194;28;20439;-82
2022/01/04 11:30:32;;;;;;;16.60;10.93;;;8.30;99.90;;;;;;5112181;28;20177;-82
2022/01/04 11:33:02;;;;;;;16.40;11.10;;;8.20;99.90;;;;;;5112916;28;20466;-82
2022/01/04 11:35:29;;;;;;;19.73;10.40;;;8.20;99.90;;;;;;5115790;28;20415;-81
2022/01/04 11:37:57;;;;;;;17.90;11.13;;;8.10;99.90;;;;;;5115835;28;20471;-82
2022/01/04 11:40:35;;;;;;;19.50;10.63;;;8.00;99.90;;;;;;5116133;28;20412;-82
2022/01/04 11:43:04;;;;;;;20.30;11.90;;;8.00;99.90;;;;;;5115965;28;20440;-82
2022/01/04 11:45:48;;;;;;;17.37;9.30;;;7.90;99.90;;;;;;5115591;28;20421;-82
2022/01/04 11:48:27;;;;;;;18.53;9.10;;;7.90;99.90;;;;;;5115785;28;20461;-82
2022/01/04 11:50:55;;;;;;;18.00;8.47;;;7.90;99.90;;;;;;5115714;28;20504;-82
2022/01/04 11:53:20;;;;;;;14.70;9.50;;;8.00;99.90;;;;;;5115613;28;20421;-82
2022/01/04 11:55:52;;;;;;;15.30;8.87;;;8.00;99.90;;;;;;5115710;28;20465;-81
2022/01/04 11:58:20;;;;;;;14.13;8.87;;;8.00;99.90;;;;;;5115506;28;20180;-83
2022/01/04 12:01:01;;;;;;;10.53;6.47;;;8.00;99.90;;;;;;5113268;28;21185;-82
2022/01/04 12:03:43;;;;;;;9.30;6.23;;;7.90;99.90;;;;;;5096208;28;20427;-82
2022/01/04 12:06:10;;;;;;;11.60;4.90;;;7.90;99.90;;;;;;5114454;28;20420;-83
2022/01/04 12:08:47;;;;;;;11.90;4.57;;;7.80;99.90;;;;;;5114123;28;20895;-82
2022/01/04 12:11:19;;;;;;;8.80;2.13;;;7.80;99.90;;;;;;5113834;28;20420;-83
2022/01/04 12:13:48;;;;;;;7.03;1.63;;;7.70;99.90;;;;;;5095580;28;20414;-83
2022/01/04 12:16:14;;;;;;;4.17;2.13;;;7.70;99.90;;;;;;5113930;28;20490;-83
2022/01/04 12:18:40;;;;;;;4.53;1.30;;;7.70;99.90;;;;;;5114055;28;20408;-82
2022/01/04 12:21:14;;;;;;;4.23;2.13;;;7.70;99.90;;;;;;5113950;28;20415;-82
2022/01/04 12:23:39;;;;;;;3.60;0.70;;;7.70;99.90;;;;;;5114051;28;20408;-83
2022/01/04 12:26:05;;;;;;;7.57;1.60;;;7.60;99.90;;;;;;5113727;28;20442;-82
2022/01/04 12:28:36;;;;;;;3.53;1.37;;;7.60;99.90;;;;;;5112053;28;20181;-83
2022/01/04 12:31:17;;;;;;;1.93;0.80;;;7.60;99.90;;;;;;5113115;28;20175;-83
2022/01/04 12:33:45;;;;;;;2.27;1.00;;;7.50;99.90;;;;;;5113687;28;20840;-83
2022/01/04 12:36:23;;;;;;;4.30;0.93;;;7.40;99.90;;;;;;5095419;28;20838;-83
2022/01/04 12:38:50;;;;;;;3.70;0.70;;;7.40;99.90;;;;;;5113536;28;20451;-83
2022/01/04 12:41:17;;;;;;;3.93;0.70;;;7.40;99.90;;;;;;5095787;28;20991;-83
2022/01/04 12:43:46;;;;;;;3.63;0.77;;;7.30;99.90;;;;;;5113208;28;20442;-84
2022/01/04 12:46:28;;;;;;;1.53;0.83;;;7.30;99.90;;;;;;5096061;28;21009;-83
2022/01/04 12:48:57;;;;;;;1.90;0.50;;;7.30;99.90;;;;;;5113451;28;20966;-83
2022/01/04 12:51:26;;;;;;;1.67;0.40;;;7.30;99.90;;;;;;5113663;28;20914;-84
2022/01/04 12:53:53;;;;;;;3.10;0.60;;;7.30;99.90;;;;;;5113228;28;20399;-84
2022/01/04 12:56:18;;;;;;;1.93;0.50;;;7.30;99.90;;;;;;5113429;28;20967;-84